sensor_id;sensor_type;location;lat;lon;timestamp;temperature;humidity
13744;DHT22;6943;52.368;9.966;2023-01-23T00:00:39;3.10;99.90
13744;DHT22;6943;52.368;9.966;2023-01-23T00:03:05;3.10;99.90
13744;DHT22;6943;52.368;9.966;2023-01-23T00:05:31;3.20;99.90
13744;DHT22;6943;52.368;9.966;2023-01-23T00:07:56;3.20;52.60
13744;DHT22;6943;52.368;9.966;2023-01-23T00:10:22;3.20;47.30
13744;DHT22;6943;52.368;9.966;2023-01-23T00:12:47;3.30;68.80
13744;DHT22;6943;52.368;9.966;2023-01-23T00:15:17;3.30;1.00
13744;DHT22;6943;52.368;9.966;2023-01-23T00:17:43;3.30;1.00
13744;DHT22;6943;52.368;9.966;2023-01-23T00:20:10;3.30;1.00
13744;DHT22;6943;52.368;9.966;2023-01-23T00:22:36;3.20;1.00
13744;DHT22;6943;52.368;9.966;2023-01-23T00:25:03;3.30;1.00
13744;DHT22;6943;52.368;9.966;2023-01-23T00:27:29;3.40;1.00
13744;DHT22;6943;52.368;9.966;2023-01-23T00:29:54;3.30;1.00
13744;DHT22;6943;52.368;9.966;2023-01-23T00:32:21;3.30;1.00
13744;DHT22;6943;52.368;9.966;2023-01-23T00:34:46;3.40;1.00
13744;DHT22;6943;52.368;9.966;2023-01-23T00:37:12;3.50;1.00
13744;DHT22;6943;52.368;9.966;2023-01-23T00:39:39;3.60;1.00
13744;DHT22;6943;52.368;9.966;2023-01-23T00:42:05;3.40;99.90
13744;DHT22;6943;52.368;9.966;2023-01-23T00:44:30;3.30;1.00
13744;DHT22;6943;52.368;9.966;2023-01-23T00:46:57;3.30;1.00
13744;DHT22;6943;52.368;9.966;2023-01-23T00:49:22;3.20;1.00
13744;DHT22;6943;52.368;9.966;2023-01-23T00:51:48;3.20;1.00
13744;DHT22;6943;52.368;9.966;2023-01-23T00:54:15;3.20;1.00
13744;DHT22;6943;52.368;9.966;2023-01-23T00:56:41;3.20;1.00
13744;DHT22;6943;52.368;9.966;2023-01-23T00:59:07;3.30;1.00
13744;DHT22;6943;52.368;9.966;2023-01-23T01:01:32;3.30;1.00
13744;DHT22;6943;52.368;9.966;2023-01-23T01:03:58;3.40;1.00
13744;DHT22;6943;52.368;9.966;2023-01-23T01:06:24;3.40;1.00
13744;DHT22;6943;52.368;9.966;2023-01-23T01:08:50;3.30;1.00
13744;DHT22;6943;52.368;9.966;2023-01-23T01:11:15;3.40;1.00
13744;DHT22;6943;52.368;9.966;2023-01-23T01:13:42;3.20;1.00
13744;DHT22;6943;52.368;9.966;2023-01-23T01:16:08;3.10;1.00
13744;DHT22;6943;52.368;9.966;2023-01-23T01:18:34;2.90;1.00
13744;DHT22;6943;52.368;9.966;2023-01-23T01:20:59;2.90;90.90
13744;DHT22;6943;52.368;9.966;2023-01-23T01:23:25;2.90;99.90
13744;DHT22;6943;52.368;9.966;2023-01-23T01:25:51;2.80;99.90
13744;DHT22;6943;52.368;9.966;2023-01-23T01:28:17;3.00;99.90
13744;DHT22;6943;52.368;9.966;2023-01-23T01:30:42;3.10;99.90
13744;DHT22;6943;52.368;9.966;2023-01-23T01:33:08;2.90;1.00
13744;DHT22;6943;52.368;9.966;2023-01-23T01:35:37;2.90;99.90
13744;DHT22;6943;52.368;9.966;2023-01-23T01:38:02;2.80;99.90
13744;DHT22;6943;52.368;9.966;2023-01-23T01:40:32;2.80;99.90
13744;DHT22;6943;52.368;9.966;2023-01-23T01:43:01;2.70;99.90
13744;DHT22;6943;52.368;9.966;2023-01-23T01:48:23;2.70;99.90
13744;DHT22;6943;52.368;9.966;2023-01-23T01:50:50;2.70;99.90
13744;DHT22;6943;52.368;9.966;2023-01-23T01:53:16;2.80;99.90
13744;DHT22;6943;52.368;9.966;2023-01-23T01:55:41;2.80;99.90
13744;DHT22;6943;52.368;9.966;2023-01-23T01:58:07;2.90;99.90
13744;DHT22;6943;52.368;9.966;2023-01-23T02:00:33;2.90;99.90
13744;DHT22;6943;52.368;9.966;2023-01-23T02:03:00;2.90;99.90
13744;DHT22;6943;52.368;9.966;2023-01-23T02:05:32;3.00;99.90
13744;DHT22;6943;52.368;9.966;2023-01-23T02:11:31;3.10;99.90
13744;DHT22;6943;52.368;9.966;2023-01-23T02:13:57;3.10;99.90
13744;DHT22;6943;52.368;9.966;2023-01-23T02:16:26;3.20;99.90
13744;DHT22;6943;52.368;9.966;2023-01-23T02:18:57;3.20;80.00
13744;DHT22;6943;52.368;9.966;2023-01-23T02:21:24;3.30;98.10
13744;DHT22;6943;52.368;9.966;2023-01-23T02:24:03;3.10;1.00
13744;DHT22;6943;52.368;9.966;2023-01-23T02:26:43;3.10;39.60
13744;DHT22;6943;52.368;9.966;2023-01-23T02:29:09;3.00;50.90
13744;DHT22;6943;52.368;9.966;2023-01-23T02:31:35;3.10;99.90
13744;DHT22;6943;52.368;9.966;2023-01-23T02:34:02;3.10;99.90
13744;DHT22;6943;52.368;9.966;2023-01-23T02:36:32;3.10;99.90
13744;DHT22;6943;52.368;9.966;2023-01-23T02:39:11;3.10;99.90
13744;DHT22;6943;52.368;9.966;2023-01-23T02:41:49;3.10;99.90
13744;DHT22;6943;52.368;9.966;2023-01-23T02:44:23;3.20;99.90
13744;DHT22;6943;52.368;9.966;2023-01-23T02:47:00;3.10;1.00
13744;DHT22;6943;52.368;9.966;2023-01-23T02:49:26;3.00;99.90
13744;DHT22;6943;52.368;9.966;2023-01-23T02:51:54;3.00;99.90
13744;DHT22;6943;52.368;9.966;2023-01-23T02:54:20;3.00;99.90
13744;DHT22;6943;52.368;9.966;2023-01-23T02:56:45;3.00;99.90
13744;DHT22;6943;52.368;9.966;2023-01-23T02:59:11;3.20;99.90
13744;DHT22;6943;52.368;9.966;2023-01-23T03:01:55;3.10;1.00
13744;DHT22;6943;52.368;9.966;2023-01-23T03:04:22;2.90;2.50
13744;DHT22;6943;52.368;9.966;2023-01-23T03:06:47;2.90;99.90
13744;DHT22;6943;52.368;9.966;2023-01-23T03:09:15;2.90;99.90
13744;DHT22;6943;52.368;9.966;2023-01-23T03:11:42;2.80;95.00
13744;DHT22;6943;52.368;9.966;2023-01-23T03:14:13;2.70;99.90
13744;DHT22;6943;52.368;9.966;2023-01-23T03:16:38;2.70;99.90
13744;DHT22;6943;52.368;9.966;2023-01-23T03:19:07;2.70;99.90
13744;DHT22;6943;52.368;9.966;2023-01-23T03:21:34;2.60;99.90
13744;DHT22;6943;52.368;9.966;2023-01-23T03:24:03;2.50;99.90
13744;DHT22;6943;52.368;9.966;2023-01-23T03:26:30;2.60;99.90
13744;DHT22;6943;52.368;9.966;2023-01-23T03:28:55;2.60;99.90
13744;DHT22;6943;52.368;9.966;2023-01-23T03:31:39;2.80;99.90
13744;DHT22;6943;52.368;9.966;2023-01-23T03:34:05;2.50;99.90
13744;DHT22;6943;52.368;9.966;2023-01-23T03:36:31;2.50;99.90
13744;DHT22;6943;52.368;9.966;2023-01-23T03:38:57;2.50;99.90
13744;DHT22;6943;52.368;9.966;2023-01-23T03:41:41;2.50;99.90
13744;DHT22;6943;52.368;9.966;2023-01-23T03:44:09;2.60;99.90
13744;DHT22;6943;52.368;9.966;2023-01-23T03:46:35;2.70;99.90
13744;DHT22;6943;52.368;9.966;2023-01-23T03:49:00;2.60;99.90
13744;DHT22;6943;52.368;9.966;2023-01-23T03:51:26;2.60;99.90
13744;DHT22;6943;52.368;9.966;2023-01-23T03:53:51;2.50;99.90
13744;DHT22;6943;52.368;9.966;2023-01-23T03:56:17;2.50;99.90
13744;DHT22;6943;52.368;9.966;2023-01-23T03:58:42;2.50;99.90
13744;DHT22;6943;52.368;9.966;2023-01-23T04:01:08;2.50;99.90
13744;DHT22;6943;52.368;9.966;2023-01-23T04:03:34;2.50;99.90
13744;DHT22;6943;52.368;9.966;2023-01-23T04:06:00;2.50;99.90
13744;DHT22;6943;52.368;9.966;2023-01-23T04:08:26;2.50;99.90
13744;DHT22;6943;52.368;9.966;2023-01-23T04:11:03;2.50;99.90
13744;DHT22;6943;52.368;9.966;2023-01-23T04:13:30;2.50;99.90
13744;DHT22;6943;52.368;9.966;2023-01-23T04:15:55;2.50;99.90
13744;DHT22;6943;52.368;9.966;2023-01-23T04:18:21;2.50;99.90
13744;DHT22;6943;52.368;9.966;2023-01-23T04:20:47;2.50;99.90
13744;DHT22;6943;52.368;9.966;2023-01-23T04:23:12;2.40;99.90
13744;DHT22;6943;52.368;9.966;2023-01-23T04:25:38;2.40;99.90
13744;DHT22;6943;52.368;9.966;2023-01-23T04:28:03;2.40;99.90
13744;DHT22;6943;52.368;9.966;2023-01-23T04:30:29;2.50;99.90
13744;DHT22;6943;52.368;9.966;2023-01-23T04:32:54;2.50;99.90
13744;DHT22;6943;52.368;9.966;2023-01-23T04:35:20;2.50;99.90
13744;DHT22;6943;52.368;9.966;2023-01-23T04:37:45;2.60;99.90
13744;DHT22;6943;52.368;9.966;2023-01-23T04:40:11;2.60;99.90
13744;DHT22;6943;52.368;9.966;2023-01-23T04:42:36;2.70;99.90
13744;DHT22;6943;52.368;9.966;2023-01-23T04:45:02;2.70;99.90
13744;DHT22;6943;52.368;9.966;2023-01-23T04:47:27;2.60;66.30
13744;DHT22;6943;52.368;9.966;2023-01-23T04:49:53;2.60;76.60
13744;DHT22;6943;52.368;9.966;2023-01-23T04:52:18;2.50;99.90
13744;DHT22;6943;52.368;9.966;2023-01-23T04:54:44;2.50;99.90
13744;DHT22;6943;52.368;9.966;2023-01-23T04:57:09;2.50;99.90
13744;DHT22;6943;52.368;9.966;2023-01-23T04:59:35;2.50;99.90
13744;DHT22;6943;52.368;9.966;2023-01-23T05:02:00;2.40;99.90
13744;DHT22;6943;52.368;9.966;2023-01-23T05:04:27;2.40;99.90
13744;DHT22;6943;52.368;9.966;2023-01-23T05:06:52;2.40;99.90
13744;DHT22;6943;52.368;9.966;2023-01-23T05:09:18;2.40;99.90
13744;DHT22;6943;52.368;9.966;2023-01-23T05:11:43;2.40;99.90
13744;DHT22;6943;52.368;9.966;2023-01-23T05:14:09;2.30;99.90
13744;DHT22;6943;52.368;9.966;2023-01-23T05:16:34;2.30;99.90
13744;DHT22;6943;52.368;9.966;2023-01-23T05:19:00;2.30;99.90
13744;DHT22;6943;52.368;9.966;2023-01-23T05:21:25;2.40;99.90
13744;DHT22;6943;52.368;9.966;2023-01-23T05:23:51;2.40;99.90
13744;DHT22;6943;52.368;9.966;2023-01-23T05:26:16;2.40;99.90
13744;DHT22;6943;52.368;9.966;2023-01-23T05:28:42;2.50;99.90
13744;DHT22;6943;52.368;9.966;2023-01-23T05:31:07;2.40;99.90
13744;DHT22;6943;52.368;9.966;2023-01-23T05:33:33;2.30;99.90
13744;DHT22;6943;52.368;9.966;2023-01-23T05:35:59;2.30;99.90
13744;DHT22;6943;52.368;9.966;2023-01-23T05:38:25;2.30;99.90
13744;DHT22;6943;52.368;9.966;2023-01-23T05:40:51;2.30;99.90
13744;DHT22;6943;52.368;9.966;2023-01-23T05:43:16;2.20;99.90
13744;DHT22;6943;52.368;9.966;2023-01-23T05:45:42;2.20;99.90
13744;DHT22;6943;52.368;9.966;2023-01-23T05:48:08;2.20;99.90
13744;DHT22;6943;52.368;9.966;2023-01-23T05:50:33;2.20;99.90
13744;DHT22;6943;52.368;9.966;2023-01-23T05:52:59;2.70;99.90
13744;DHT22;6943;52.368;9.966;2023-01-23T05:55:24;2.20;99.90
13744;DHT22;6943;52.368;9.966;2023-01-23T05:57:50;2.20;99.90
13744;DHT22;6943;52.368;9.966;2023-01-23T06:00:16;2.20;99.90
13744;DHT22;6943;52.368;9.966;2023-01-23T06:02:42;2.10;99.90
13744;DHT22;6943;52.368;9.966;2023-01-23T06:05:07;2.20;99.90
13744;DHT22;6943;52.368;9.966;2023-01-23T06:07:33;2.30;99.90
13744;DHT22;6943;52.368;9.966;2023-01-23T06:09:59;2.30;99.90
13744;DHT22;6943;52.368;9.966;2023-01-23T06:12:24;2.20;99.90
13744;DHT22;6943;52.368;9.966;2023-01-23T06:14:50;2.20;99.90
13744;DHT22;6943;52.368;9.966;2023-01-23T06:17:16;2.20;99.90
13744;DHT22;6943;52.368;9.966;2023-01-23T06:19:41;2.20;99.90
13744;DHT22;6943;52.368;9.966;2023-01-23T06:22:07;2.30;99.90
13744;DHT22;6943;52.368;9.966;2023-01-23T06:24:32;2.30;99.90
13744;DHT22;6943;52.368;9.966;2023-01-23T06:26:57;2.40;99.90
13744;DHT22;6943;52.368;9.966;2023-01-23T06:29:23;2.30;99.90
13744;DHT22;6943;52.368;9.966;2023-01-23T06:31:48;2.40;99.90
13744;DHT22;6943;52.368;9.966;2023-01-23T06:34:14;2.40;99.90
13744;DHT22;6943;52.368;9.966;2023-01-23T06:36:40;2.40;99.90
13744;DHT22;6943;52.368;9.966;2023-01-23T06:39:06;2.40;99.90
13744;DHT22;6943;52.368;9.966;2023-01-23T06:41:32;2.40;99.90
13744;DHT22;6943;52.368;9.966;2023-01-23T06:43:57;2.50;87.80
13744;DHT22;6943;52.368;9.966;2023-01-23T06:46:23;2.50;22.80
13744;DHT22;6943;52.368;9.966;2023-01-23T06:48:49;2.30;1.00
13744;DHT22;6943;52.368;9.966;2023-01-23T06:51:14;2.20;1.00
13744;DHT22;6943;52.368;9.966;2023-01-23T06:53:40;2.20;88.30
13744;DHT22;6943;52.368;9.966;2023-01-23T06:56:06;2.20;88.80
13744;DHT22;6943;52.368;9.966;2023-01-23T06:58:32;2.10;99.90
13744;DHT22;6943;52.368;9.966;2023-01-23T07:00:58;2.00;99.90
13744;DHT22;6943;52.368;9.966;2023-01-23T07:03:24;2.10;99.90
13744;DHT22;6943;52.368;9.966;2023-01-23T07:05:50;1.40;99.90
13744;DHT22;6943;52.368;9.966;2023-01-23T07:08:16;2.00;99.90
13744;DHT22;6943;52.368;9.966;2023-01-23T07:10:42;2.10;99.90
13744;DHT22;6943;52.368;9.966;2023-01-23T07:13:09;2.10;99.90
13744;DHT22;6943;52.368;9.966;2023-01-23T07:15:35;2.10;99.90
13744;DHT22;6943;52.368;9.966;2023-01-23T07:18:01;2.10;99.90
13744;DHT22;6943;52.368;9.966;2023-01-23T07:20:27;2.20;99.90
13744;DHT22;6943;52.368;9.966;2023-01-23T07:22:54;2.30;99.90
13744;DHT22;6943;52.368;9.966;2023-01-23T07:25:20;2.30;99.90
13744;DHT22;6943;52.368;9.966;2023-01-23T07:27:46;2.30;96.70
13744;DHT22;6943;52.368;9.966;2023-01-23T07:30:12;2.50;99.90
13744;DHT22;6943;52.368;9.966;2023-01-23T07:32:38;2.60;99.90
13744;DHT22;6943;52.368;9.966;2023-01-23T07:35:03;2.70;99.90
13744;DHT22;6943;52.368;9.966;2023-01-23T07:37:29;2.70;1.00
13744;DHT22;6943;52.368;9.966;2023-01-23T07:39:55;2.80;1.00
13744;DHT22;6943;52.368;9.966;2023-01-23T07:42:20;2.80;1.00
13744;DHT22;6943;52.368;9.966;2023-01-23T07:44:46;2.90;1.00
13744;DHT22;6943;52.368;9.966;2023-01-23T07:47:11;3.00;99.90
13744;DHT22;6943;52.368;9.966;2023-01-23T07:49:37;2.80;1.00
13744;DHT22;6943;52.368;9.966;2023-01-23T07:52:03;2.50;77.60
13744;DHT22;6943;52.368;9.966;2023-01-23T07:54:28;2.30;1.00
13744;DHT22;6943;52.368;9.966;2023-01-23T07:56:54;2.20;4.50
13744;DHT22;6943;52.368;9.966;2023-01-23T07:59:20;2.20;99.90
13744;DHT22;6943;52.368;9.966;2023-01-23T08:01:45;2.20;99.90
13744;DHT22;6943;52.368;9.966;2023-01-23T08:04:13;2.30;99.90
13744;DHT22;6943;52.368;9.966;2023-01-23T08:06:38;2.20;93.60
13744;DHT22;6943;52.368;9.966;2023-01-23T08:09:04;2.20;99.90
13744;DHT22;6943;52.368;9.966;2023-01-23T08:11:29;2.20;99.90
13744;DHT22;6943;52.368;9.966;2023-01-23T08:13:55;2.20;99.90
13744;DHT22;6943;52.368;9.966;2023-01-23T08:16:20;2.20;99.90
13744;DHT22;6943;52.368;9.966;2023-01-23T08:18:46;2.20;99.90
13744;DHT22;6943;52.368;9.966;2023-01-23T08:21:11;2.20;99.90
13744;DHT22;6943;52.368;9.966;2023-01-23T08:23:37;2.20;99.90
13744;DHT22;6943;52.368;9.966;2023-01-23T08:26:05;2.20;99.90
13744;DHT22;6943;52.368;9.966;2023-01-23T08:28:31;2.10;99.90
13744;DHT22;6943;52.368;9.966;2023-01-23T08:31:02;2.10;99.90
13744;DHT22;6943;52.368;9.966;2023-01-23T08:33:28;2.10;99.90
13744;DHT22;6943;52.368;9.966;2023-01-23T08:35:56;2.10;99.90
13744;DHT22;6943;52.368;9.966;2023-01-23T08:38:23;2.10;99.90
13744;DHT22;6943;52.368;9.966;2023-01-23T08:40:50;2.20;99.90
13744;DHT22;6943;52.368;9.966;2023-01-23T08:43:16;2.20;99.90
13744;DHT22;6943;52.368;9.966;2023-01-23T08:45:50;2.10;99.90
13744;DHT22;6943;52.368;9.966;2023-01-23T08:48:17;2.20;99.90
13744;DHT22;6943;52.368;9.966;2023-01-23T08:50:42;2.40;99.90
13744;DHT22;6943;52.368;9.966;2023-01-23T08:53:08;2.60;99.90
13744;DHT22;6943;52.368;9.966;2023-01-23T08:55:33;2.60;99.90
13744;DHT22;6943;52.368;9.966;2023-01-23T08:58:01;2.70;99.90
13744;DHT22;6943;52.368;9.966;2023-01-23T09:00:26;2.70;1.00
13744;DHT22;6943;52.368;9.966;2023-01-23T09:02:52;2.60;1.00
13744;DHT22;6943;52.368;9.966;2023-01-23T09:05:17;2.80;1.00
13744;DHT22;6943;52.368;9.966;2023-01-23T09:07:43;2.80;1.00
13744;DHT22;6943;52.368;9.966;2023-01-23T09:10:09;2.60;1.00
13744;DHT22;6943;52.368;9.966;2023-01-23T09:12:35;2.70;1.00
13744;DHT22;6943;52.368;9.966;2023-01-23T09:15:01;2.90;1.00
13744;DHT22;6943;52.368;9.966;2023-01-23T09:17:26;3.00;1.00
13744;DHT22;6943;52.368;9.966;2023-01-23T09:19:52;3.20;1.00
13744;DHT22;6943;52.368;9.966;2023-01-23T09:22:18;3.10;99.90
13744;DHT22;6943;52.368;9.966;2023-01-23T09:24:44;3.00;1.00
13744;DHT22;6943;52.368;9.966;2023-01-23T09:27:10;2.90;1.00
13744;DHT22;6943;52.368;9.966;2023-01-23T09:29:36;2.80;1.00
13744;DHT22;6943;52.368;9.966;2023-01-23T09:32:02;2.60;99.90
13744;DHT22;6943;52.368;9.966;2023-01-23T09:34:28;2.50;1.00
13744;DHT22;6943;52.368;9.966;2023-01-23T09:36:53;2.60;1.00
13744;DHT22;6943;52.368;9.966;2023-01-23T09:39:19;2.80;1.00
13744;DHT22;6943;52.368;9.966;2023-01-23T09:41:46;2.60;99.90
13744;DHT22;6943;52.368;9.966;2023-01-23T09:46:54;2.40;1.00
13744;DHT22;6943;52.368;9.966;2023-01-23T09:52:26;2.40;99.90
13744;DHT22;6943;52.368;9.966;2023-01-23T09:57:32;2.50;68.90
13744;DHT22;6943;52.368;9.966;2023-01-23T10:00:09;2.60;25.90
13744;DHT22;6943;52.368;9.966;2023-01-23T10:02:37;2.70;1.00
13744;DHT22;6943;52.368;9.966;2023-01-23T10:05:07;2.70;1.00
13744;DHT22;6943;52.368;9.966;2023-01-23T10:08:30;2.90;1.00
13744;DHT22;6943;52.368;9.966;2023-01-23T10:13:28;2.70;1.00
13744;DHT22;6943;52.368;9.966;2023-01-23T10:16:17;2.80;1.00
13744;DHT22;6943;52.368;9.966;2023-01-23T10:18:57;2.70;1.00
13744;DHT22;6943;52.368;9.966;2023-01-23T10:21:34;2.50;1.00
13744;DHT22;6943;52.368;9.966;2023-01-23T10:27:36;2.40;98.40
13744;DHT22;6943;52.368;9.966;2023-01-23T10:32:50;2.40;99.90
13744;DHT22;6943;52.368;9.966;2023-01-23T10:35:19;2.50;99.90
13744;DHT22;6943;52.368;9.966;2023-01-23T10:38:11;2.50;12.00
13744;DHT22;6943;52.368;9.966;2023-01-23T10:40:40;2.50;20.80
13744;DHT22;6943;52.368;9.966;2023-01-23T10:43:25;2.50;37.80
13744;DHT22;6943;52.368;9.966;2023-01-23T10:45:51;2.60;37.90
13744;DHT22;6943;52.368;9.966;2023-01-23T10:48:37;2.70;87.80
13744;DHT22;6943;52.368;9.966;2023-01-23T10:51:08;2.90;90.40
13744;DHT22;6943;52.368;9.966;2023-01-23T10:54:13;2.90;1.00
13744;DHT22;6943;52.368;9.966;2023-01-23T10:59:36;2.90;1.00
13744;DHT22;6943;52.368;9.966;2023-01-23T11:04:39;2.70;1.00
13744;DHT22;6943;52.368;9.966;2023-01-23T11:07:14;2.70;1.00
13744;DHT22;6943;52.368;9.966;2023-01-23T11:10:00;2.70;1.00
13744;DHT22;6943;52.368;9.966;2023-01-23T11:12:31;2.70;1.00
13744;DHT22;6943;52.368;9.966;2023-01-23T11:15:28;2.80;1.00
13744;DHT22;6943;52.368;9.966;2023-01-23T11:17:57;3.00;1.00
13744;DHT22;6943;52.368;9.966;2023-01-23T11:20:38;3.30;1.00
13744;DHT22;6943;52.368;9.966;2023-01-23T11:28:11;3.40;1.00
13744;DHT22;6943;52.368;9.966;2023-01-23T11:30:55;3.40;95.80
13744;DHT22;6943;52.368;9.966;2023-01-23T11:36:01;3.10;1.00
13744;DHT22;6943;52.368;9.966;2023-01-23T11:38:35;3.00;99.90
13744;DHT22;6943;52.368;9.966;2023-01-23T11:41:04;2.80;1.00
13744;DHT22;6943;52.368;9.966;2023-01-23T11:43:30;2.70;99.90
13744;DHT22;6943;52.368;9.966;2023-01-23T11:46:23;2.60;1.00
13744;DHT22;6943;52.368;9.966;2023-01-23T11:51:59;2.70;1.00
13744;DHT22;6943;52.368;9.966;2023-01-23T11:54:51;2.60;1.00
13744;DHT22;6943;52.368;9.966;2023-01-23T12:00:15;2.60;1.00
13744;DHT22;6943;52.368;9.966;2023-01-23T12:03:18;2.60;1.00
13744;DHT22;6943;52.368;9.966;2023-01-23T12:05:56;2.80;1.00
13744;DHT22;6943;52.368;9.966;2023-01-23T12:11:13;2.80;1.00
13744;DHT22;6943;52.368;9.966;2023-01-23T12:13:55;3.00;74.70
13744;DHT22;6943;52.368;9.966;2023-01-23T12:17:00;3.20;99.90
13744;DHT22;6943;52.368;9.966;2023-01-23T12:19:49;3.20;1.00
13744;DHT22;6943;52.368;9.966;2023-01-23T12:22:35;3.20;1.00
13744;DHT22;6943;52.368;9.966;2023-01-23T12:33:40;3.40;99.90
13744;DHT22;6943;52.368;9.966;2023-01-23T12:39:15;3.70;1.00
13744;DHT22;6943;52.368;9.966;2023-01-23T12:41:49;3.60;1.00
13744;DHT22;6943;52.368;9.966;2023-01-23T12:44:21;3.30;1.00
13744;DHT22;6943;52.368;9.966;2023-01-23T12:46:57;3.00;1.00
13744;DHT22;6943;52.368;9.966;2023-01-23T12:49:36;3.20;1.00
13744;DHT22;6943;52.368;9.966;2023-01-23T12:52:14;3.40;1.00
13744;DHT22;6943;52.368;9.966;2023-01-23T12:54:47;3.50;1.00
13744;DHT22;6943;52.368;9.966;2023-01-23T12:57:16;3.60;1.00
13744;DHT22;6943;52.368;9.966;2023-01-23T13:00:35;3.60;1.00
13744;DHT22;6943;52.368;9.966;2023-01-23T13:11:11;3.60;1.00
13744;DHT22;6943;52.368;9.966;2023-01-23T13:13:57;3.70;99.90
13744;DHT22;6943;52.368;9.966;2023-01-23T13:16:28;3.50;1.00
13744;DHT22;6943;52.368;9.966;2023-01-23T13:19:01;3.60;1.00
13744;DHT22;6943;52.368;9.966;2023-01-23T13:27:54;3.70;99.90
13744;DHT22;6943;52.368;9.966;2023-01-23T13:32:49;3.80;1.00
13744;DHT22;6943;52.368;9.966;2023-01-23T13:35:50;3.90;99.90
13744;DHT22;6943;52.368;9.966;2023-01-23T13:43:51;3.30;1.00
13744;DHT22;6943;52.368;9.966;2023-01-23T13:52:11;3.60;36.90
13744;DHT22;6943;52.368;9.966;2023-01-23T13:54:57;3.30;99.90
13744;DHT22;6943;52.368;9.966;2023-01-23T13:57:42;3.40;99.90
13744;DHT22;6943;52.368;9.966;2023-01-23T14:00:19;3.20;1.00
13744;DHT22;6943;52.368;9.966;2023-01-23T14:03:01;3.20;1.00
13744;DHT22;6943;52.368;9.966;2023-01-23T14:06:07;3.10;99.90
13744;DHT22;6943;52.368;9.966;2023-01-23T14:08:45;3.20;90.40
13744;DHT22;6943;52.368;9.966;2023-01-23T14:11:13;3.20;39.10
13744;DHT22;6943;52.368;9.966;2023-01-23T14:13:49;3.20;72.20
13744;DHT22;6943;52.368;9.966;2023-01-23T14:16:16;3.20;99.90
13744;DHT22;6943;52.368;9.966;2023-01-23T14:18:51;3.40;1.00
13744;DHT22;6943;52.368;9.966;2023-01-23T14:21:25;3.50;1.00
13744;DHT22;6943;52.368;9.966;2023-01-23T14:23:53;3.30;1.00
13744;DHT22;6943;52.368;9.966;2023-01-23T14:26:24;3.40;1.00
13744;DHT22;6943;52.368;9.966;2023-01-23T14:28:55;3.40;1.00
13744;DHT22;6943;52.368;9.966;2023-01-23T14:31:42;3.30;1.00
13744;DHT22;6943;52.368;9.966;2023-01-23T14:34:14;3.30;99.90
13744;DHT22;6943;52.368;9.966;2023-01-23T14:36:44;3.20;99.90
13744;DHT22;6943;52.368;9.966;2023-01-23T14:39:24;3.40;1.00
13744;DHT22;6943;52.368;9.966;2023-01-23T14:41:52;3.40;1.00
13744;DHT22;6943;52.368;9.966;2023-01-23T14:44:39;3.50;1.00
13744;DHT22;6943;52.368;9.966;2023-01-23T14:47:14;3.40;1.00
13744;DHT22;6943;52.368;9.966;2023-01-23T14:49:40;3.40;1.00
13744;DHT22;6943;52.368;9.966;2023-01-23T14:52:16;3.40;1.00
13744;DHT22;6943;52.368;9.966;2023-01-23T14:54:44;3.20;1.00
13744;DHT22;6943;52.368;9.966;2023-01-23T14:57:10;3.20;99.90
13744;DHT22;6943;52.368;9.966;2023-01-23T14:59:38;3.20;1.00
13744;DHT22;6943;52.368;9.966;2023-01-23T15:02:30;3.30;99.90
13744;DHT22;6943;52.368;9.966;2023-01-23T15:05:18;3.40;99.90
13744;DHT22;6943;52.368;9.966;2023-01-23T15:07:48;3.50;1.00
13744;DHT22;6943;52.368;9.966;2023-01-23T15:10:16;3.40;99.90
13744;DHT22;6943;52.368;9.966;2023-01-23T15:13:21;3.40;1.00
13744;DHT22;6943;52.368;9.966;2023-01-23T15:15:54;3.30;1.00
13744;DHT22;6943;52.368;9.966;2023-01-23T15:18:23;3.30;1.00
13744;DHT22;6943;52.368;9.966;2023-01-23T15:20:56;3.40;1.00
13744;DHT22;6943;52.368;9.966;2023-01-23T15:23:30;3.30;1.00
13744;DHT22;6943;52.368;9.966;2023-01-23T15:26:23;3.30;1.00
13744;DHT22;6943;52.368;9.966;2023-01-23T15:28:56;3.20;1.00
13744;DHT22;6943;52.368;9.966;2023-01-23T15:36:54;3.20;1.00
13744;DHT22;6943;52.368;9.966;2023-01-23T15:39:29;3.20;99.90
13744;DHT22;6943;52.368;9.966;2023-01-23T15:42:01;3.00;99.90
13744;DHT22;6943;52.368;9.966;2023-01-23T15:44:29;2.80;1.00
13744;DHT22;6943;52.368;9.966;2023-01-23T15:46:55;2.90;1.00
13744;DHT22;6943;52.368;9.966;2023-01-23T15:49:25;2.70;1.00
13744;DHT22;6943;52.368;9.966;2023-01-23T15:51:51;2.70;99.90
13744;DHT22;6943;52.368;9.966;2023-01-23T15:54:25;2.60;99.90
13744;DHT22;6943;52.368;9.966;2023-01-23T15:56:52;2.80;99.90
13744;DHT22;6943;52.368;9.966;2023-01-23T15:59:18;2.80;99.90
13744;DHT22;6943;52.368;9.966;2023-01-23T16:01:44;2.90;1.00
13744;DHT22;6943;52.368;9.966;2023-01-23T16:04:10;3.00;99.70
13744;DHT22;6943;52.368;9.966;2023-01-23T16:06:36;3.00;1.00
13744;DHT22;6943;52.368;9.966;2023-01-23T16:09:02;3.20;1.00
13744;DHT22;6943;52.368;9.966;2023-01-23T16:11:31;3.20;1.00
13744;DHT22;6943;52.368;9.966;2023-01-23T16:13:58;3.20;1.00
13744;DHT22;6943;52.368;9.966;2023-01-23T16:16:23;3.10;1.00
13744;DHT22;6943;52.368;9.966;2023-01-23T16:18:49;3.10;1.00
13744;DHT22;6943;52.368;9.966;2023-01-23T16:21:20;3.00;1.00
13744;DHT22;6943;52.368;9.966;2023-01-23T16:23:47;2.90;1.00
13744;DHT22;6943;52.368;9.966;2023-01-23T16:26:18;2.90;1.00
13744;DHT22;6943;52.368;9.966;2023-01-23T16:28:44;2.90;1.00
13744;DHT22;6943;52.368;9.966;2023-01-23T16:31:14;2.80;1.00
13744;DHT22;6943;52.368;9.966;2023-01-23T16:33:40;2.70;1.00
13744;DHT22;6943;52.368;9.966;2023-01-23T16:36:06;2.60;1.00
13744;DHT22;6943;52.368;9.966;2023-01-23T16:38:35;2.60;88.40
13744;DHT22;6943;52.368;9.966;2023-01-23T16:41:00;2.60;99.90
13744;DHT22;6943;52.368;9.966;2023-01-23T16:43:26;2.60;99.90
13744;DHT22;6943;52.368;9.966;2023-01-23T16:45:52;2.60;99.90
13744;DHT22;6943;52.368;9.966;2023-01-23T16:48:19;2.60;57.90
13744;DHT22;6943;52.368;9.966;2023-01-23T16:50:51;2.70;98.60
13744;DHT22;6943;52.368;9.966;2023-01-23T16:53:32;2.80;15.20
13744;DHT22;6943;52.368;9.966;2023-01-23T16:56:00;2.60;1.00
13744;DHT22;6943;52.368;9.966;2023-01-23T16:58:28;2.60;60.60
13744;DHT22;6943;52.368;9.966;2023-01-23T17:01:02;2.70;99.90
13744;DHT22;6943;52.368;9.966;2023-01-23T17:03:32;2.80;94.70
13744;DHT22;6943;52.368;9.966;2023-01-23T17:05:58;2.60;9.40
13744;DHT22;6943;52.368;9.966;2023-01-23T17:08:24;2.70;61.40
13744;DHT22;6943;52.368;9.966;2023-01-23T17:10:53;2.60;99.90
13744;DHT22;6943;52.368;9.966;2023-01-23T17:13:20;2.60;99.90
13744;DHT22;6943;52.368;9.966;2023-01-23T17:15:49;2.60;99.90
13744;DHT22;6943;52.368;9.966;2023-01-23T17:18:21;2.70;99.90
13744;DHT22;6943;52.368;9.966;2023-01-23T17:20:46;2.80;99.90
13744;DHT22;6943;52.368;9.966;2023-01-23T17:23:13;2.60;78.60
13744;DHT22;6943;52.368;9.966;2023-01-23T17:25:39;2.60;99.90
13744;DHT22;6943;52.368;9.966;2023-01-23T17:28:10;2.60;99.90
13744;DHT22;6943;52.368;9.966;2023-01-23T17:30:35;2.60;99.90
13744;DHT22;6943;52.368;9.966;2023-01-23T17:33:01;2.60;99.90
13744;DHT22;6943;52.368;9.966;2023-01-23T17:35:35;2.50;99.90
13744;DHT22;6943;52.368;9.966;2023-01-23T17:38:02;2.50;99.90
13744;DHT22;6943;52.368;9.966;2023-01-23T17:40:28;2.50;99.90
13744;DHT22;6943;52.368;9.966;2023-01-23T17:42:54;2.50;99.90
13744;DHT22;6943;52.368;9.966;2023-01-23T17:45:21;2.50;99.90
13744;DHT22;6943;52.368;9.966;2023-01-23T17:47:50;2.50;99.90
13744;DHT22;6943;52.368;9.966;2023-01-23T17:50:19;2.50;99.90
13744;DHT22;6943;52.368;9.966;2023-01-23T17:52:45;2.50;99.90